Impacts TAF Board
For situational awareness. Not to be used for flight planning purposes.
IDs:

KLBE - Latrobe/Palmer Rgnl, PA, US

Issued at 0520 UTC 07 Dec 2022
Updated at 0652 UTC 07 Dec 2022
Potential Impact None Slight Moderate High
Time<<07/19Z 07/20Z 07/21Z 07/22Z 07/23Z 08/00Z 08/01Z 08/02Z 08/03Z 08/04Z 08/05Z 08/06Z 08/07Z>>
Type PRVL PRVL PRVL PRVL PRVL PRVL PRVL PRVL PRVL PRVL PRVL
VIS 3 5 5 5 5 5 5 5 5 5 5
CIG 5 6 6 6 6 6 6 6 6 6 6
Cover OVC OVC OVC OVC OVC OVC OVC OVC OVC OVC OVC
FltCat IFR IFR IFR IFR IFR IFR IFR IFR IFR IFR IFR
WX BR BR BR BR BR BR BR BR BR BR BR
WDir 250 300 300 300 300 300 300 300 300 300 300
WSpd 5 5 5 5 5 5 5 5 5 5 5
WGst -- -- -- -- -- -- -- -- -- -- --
WSHgt -- -- -- -- -- -- -- -- -- -- --
WSDir -- -- -- -- -- -- -- -- -- -- --
WSSpd -- -- -- -- -- -- -- -- -- -- --
Raw TAF
KLBE 070520Z 0706/0806 20005KT P6SM OVC020
  FM070700 20005KT 5SM -RA BR OVC006
  FM070900 20005KT 2SM -RA BR OVC005
  FM071500 25005KT 3SM BR OVC005
  FM072000 30005KT 5SM BR OVC006


METAR Board
Radar Display
Forecast Discussion
For situational awareness. Not to be used for flight planning purposes.